Time;durP1;ratioP1;P1;durP2;ratioP2;P2;SDS_P1;SDS_P2;PMS_P1;PMS_P2;Temp;Humidity;BMP_temperature;BMP_pressure;BME280_temperature;BME280_humidity;BME280_pressure;Samples;Min_cycle;Max_cycle;Signal;HPM_P1;HPM_P2
2023/04/23 00:00:12;;;;;;;51.75;30.30;;;;;;;6.22;77.22;93388.34;515281;28;1147;-51
2023/04/23 00:00:29;;;;;;;56.78;32.15;;;;;;;6.22;77.30;93388.34;515716;28;1309;-52
2023/04/23 00:00:45;;;;;;;54.78;31.20;;;;;;;6.23;77.16;93390.59;515844;28;2234;-51
2023/04/23 00:01:02;;;;;;;52.33;29.05;;;;;;;6.25;77.31;93393.56;515650;28;826;-52
2023/04/23 00:01:19;;;;;;;49.80;28.15;;;;;;;6.27;77.27;93393.03;515533;28;1082;-51
2023/04/23 00:01:38;;;;;;;54.13;27.15;;;;;;;6.28;77.19;93389.03;515582;28;1146;-53
2023/04/23 00:01:56;;;;;;;52.10;24.90;;;;;;;6.30;77.34;93386.50;513606;28;896;-51
2023/04/23 00:02:12;;;;;;;45.13;21.30;;;;;;;6.31;77.09;93388.72;513664;28;818;-53
2023/04/23 00:02:29;;;;;;;39.00;17.52;;;;;;;6.23;77.06;93384.38;515280;28;834;-51
2023/04/23 00:02:48;;;;;;;30.17;16.73;;;;;;;6.01;77.33;93375.22;513557;28;880;-50
2023/04/23 00:03:11;;;;;;;29.23;16.08;;;;;;;5.86;78.60;93383.16;513414;28;1128;-51
2023/04/23 00:03:27;;;;;;;57.08;17.52;;;;;;;5.83;79.22;93386.16;513560;28;918;-52
2023/04/23 00:03:43;;;;;;;27.60;14.00;;;;;;;5.81;79.66;93391.41;511323;28;852;-50
2023/04/23 00:03:59;;;;;;;39.97;15.50;;;;;;;5.80;79.83;93392.69;511525;28;825;-51
2023/04/23 00:04:17;;;;;;;51.20;16.93;;;;;;;5.82;80.03;93384.69;509596;29;862;-51
2023/04/23 00:04:35;;;;;;;41.50;16.38;;;;;;;5.88;79.90;93393.59;509738;28;878;-52
2023/04/23 00:04:51;;;;;;;36.58;15.25;;;;;;;5.91;79.91;93387.09;510061;29;846;-51
2023/04/23 00:05:07;;;;;;;53.00;16.13;;;;;;;5.94;79.82;93386.78;509949;28;866;-51
2023/04/23 00:05:26;;;;;;;58.75;15.43;;;;;;;5.99;79.63;93387.97;509565;29;869;-51
2023/04/23 00:05:43;;;;;;;55.92;16.50;;;;;;;6.01;79.60;93385.44;511685;28;2034;-51
2023/04/23 00:05:59;;;;;;;93.43;20.08;;;;;;;5.91;79.40;93363.16;511329;29;851;-51
2023/04/23 00:06:16;;;;;;;97.55;20.77;;;;;;;6.06;79.30;93385.34;511364;29;1117;-51
2023/04/23 00:06:32;;;;;;;59.58;18.60;;;;;;;6.10;79.12;93391.28;511693;28;1058;-51
2023/04/23 00:06:47;;;;;;;43.80;16.20;;;;;;;6.11;79.02;93381.78;513360;28;790;-52
2023/04/23 00:07:03;;;;;;;38.65;14.55;;;;;;;6.12;78.87;93385.28;511581;29;762;-51
2023/04/23 00:07:22;;;;;;;39.92;14.57;;;;;;;6.13;78.72;93386.03;511136;29;986;-53
2023/04/23 00:07:38;;;;;;;36.30;14.10;;;;;;;6.08;78.95;93384.84;510101;28;993;-50
2023/04/23 00:07:55;;;;;;;28.63;14.60;;;;;;;6.06;78.85;93382.59;513000;28;900;-51
2023/04/23 00:08:11;;;;;;;28.85;14.30;;;;;;;6.08;79.17;93384.84;513042;28;897;-51
2023/04/23 00:08:28;;;;;;;29.58;14.25;;;;;;;6.06;79.26;93382.59;512025;28;1096;-50
2023/04/23 00:08:43;;;;;;;51.60;17.65;;;;;;;6.09;79.19;93387.06;512496;28;1366;-50
2023/04/23 00:09:00;;;;;;;93.10;22.45;;;;;;;6.09;79.08;93389.78;510915;29;842;-52
2023/04/23 00:09:15;;;;;;;131.73;23.95;;;;;;;6.07;79.12;93386.84;511459;29;1128;-50
2023/04/23 00:09:32;;;;;;;153.93;23.92;;;;;;;6.04;79.30;93387.16;511603;28;1165;-50
2023/04/23 00:09:49;;;;;;;156.13;24.23;;;;;;;6.03;79.48;93389.16;511823;28;931;-50
2023/04/23 00:10:07;;;;;;;107.30;23.35;;;;;;;6.00;79.48;93384.69;512518;28;1676;-50
2023/04/23 00:10:23;;;;;;;56.88;19.17;;;;;;;6.00;79.70;93387.44;515527;28;1063;-50
2023/04/23 00:10:39;;;;;;;47.50;18.42;;;;;;;6.02;79.66;93387.66;515160;28;1047;-50
2023/04/23 00:10:55;;;;;;;41.00;17.67;;;;;;;6.05;79.66;93386.63;513558;28;806;-51
2023/04/23 00:11:10;;;;;;;59.53;19.67;;;;;;;6.04;79.83;93379.66;513630;28;809;-50
2023/04/23 00:11:26;;;;;;;60.67;18.95;;;;;;;6.06;79.99;93390.09;513665;28;868;-51
2023/04/23 00:11:42;;;;;;;62.58;18.33;;;;;;;6.03;80.04;93383.66;515136;28;1029;-50
2023/04/23 00:11:59;;;;;;;105.35;21.20;;;;;;;6.02;80.21;93386.94;515756;28;1066;-53
2023/04/23 00:12:15;;;;;;;171.27;24.48;;;;;;;6.03;80.19;93393.88;515700;28;1147;-50
2023/04/23 00:12:31;;;;;;;228.65;31.90;;;;;;;6.02;80.36;93381.44;515809;28;786;-51
2023/04/23 00:12:47;;;;;;;253.18;38.13;;;;;;;6.06;80.15;93381.88;514290;28;896;-51
2023/04/23 00:13:03;;;;;;;262.23;37.93;;;;;;;6.10;80.17;93393.28;513765;28;793;-50
2023/04/23 00:13:18;;;;;;;255.15;36.97;;;;;;;6.13;80.04;93397.00;513709;28;1590;-54
2023/04/23 00:13:34;;;;;;;234.05;36.00;;;;;;;6.13;79.77;93383.28;513916;28;848;-50
2023/04/23 00:13:50;;;;;;;213.70;37.25;;;;;;;6.17;79.61;93381.72;515598;28;829;-51
2023/04/23 00:14:06;;;;;;;204.20;34.40;;;;;;;6.22;79.65;93382.88;515426;28;822;-50
2023/04/23 00:14:21;;;;;;;170.40;29.07;;;;;;;6.24;79.29;93381.09;515464;28;840;-51
2023/04/23 00:14:37;;;;;;;112.65;22.83;;;;;;;6.26;79.20;93378.56;515066;28;860;-50
2023/04/23 00:14:53;;;;;;;106.50;22.00;;;;;;;6.27;79.16;93382.06;513835;28;801;-52
2023/04/23 00:15:09;;;;;;;76.95;20.42;;;;;;;6.11;79.05;93362.59;513838;28;1009;-51
2023/04/23 00:15:24;;;;;;;54.38;17.77;;;;;;;6.26;79.21;93395.00;515504;28;809;-53
2023/04/23 00:15:40;;;;;;;47.28;17.73;;;;;;;6.26;79.18;93381.31;515865;28;808;-50
2023/04/23 00:15:56;;;;;;;42.30;16.92;;;;;;;6.20;79.42;93379.91;515590;28;866;-50
2023/04/23 00:16:12;;;;;;;51.67;16.90;;;;;;;6.05;79.47;93370.19;515815;28;844;-51
2023/04/23 00:16:28;;;;;;;49.00;16.75;;;;;;;6.15;79.55;93383.50;515864;28;878;-50
2023/04/23 00:16:43;;;;;;;40.20;16.23;;;;;;;6.13;79.60;93386.75;514618;28;1589;-53
2023/04/23 00:16:59;;;;;;;38.72;15.57;;;;;;;6.13;79.63;93386.75;515614;28;988;-51
2023/04/23 00:17:14;;;;;;;38.45;15.18;;;;;;;6.10;79.65;93385.81;515364;28;1644;-50
2023/04/23 00:17:30;;;;;;;45.93;16.00;;;;;;;6.07;79.68;93383.34;515724;28;838;-50
2023/04/23 00:17:45;;;;;;;50.93;16.30;;;;;;;5.99;79.62;93385.22;516002;28;839;-49
2023/04/23 00:18:01;;;;;;;46.08;15.75;;;;;;;5.97;79.68;93383.00;515654;28;1355;-50
2023/04/23 00:18:16;;;;;;;45.63;16.37;;;;;;;5.98;79.69;93391.94;515649;28;1036;-51
2023/04/23 00:18:31;;;;;;;44.78;16.35;;;;;;;5.98;79.85;93384.47;515702;28;950;-51
2023/04/23 00:18:47;;;;;;;38.93;15.80;;;;;;;5.96;79.73;93378.03;517622;28;781;-51
2023/04/23 00:19:02;;;;;;;44.17;16.23;;;;;;;5.96;79.82;93380.78;517865;28;859;-51
2023/04/23 00:19:17;;;;;;;55.15;16.77;;;;;;;5.93;79.61;93384.56;517942;28;804;-52
2023/04/23 00:19:33;;;;;;;56.97;16.90;;;;;;;5.86;79.68;93382.41;517780;28;1105;-51
2023/04/23 00:19:48;;;;;;;56.22;16.63;;;;;;;5.81;79.56;93386.69;515876;28;1169;-50
2023/04/23 00:20:05;;;;;;;59.03;17.67;;;;;;;5.77;79.71;93382.75;515754;28;824;-50
2023/04/23 00:20:21;;;;;;;71.97;18.90;;;;;;;5.58;79.62;93390.25;515827;28;868;-52
2023/04/23 00:20:37;;;;;;;74.57;17.90;;;;;;;5.43;80.22;93384.47;516385;28;1035;-50
2023/04/23 00:20:52;;;;;;;74.27;16.93;;;;;;;5.31;80.71;93378.38;517826;28;852;-54
2023/04/23 00:21:08;;;;;;;49.57;16.10;;;;;;;5.24;81.09;93387.91;514078;28;1746;-51
2023/04/23 00:21:23;;;;;;;48.10;16.70;;;;;;;5.23;81.41;93386.44;513910;28;857;-51
2023/04/23 00:21:39;;;;;;;58.70;18.35;;;;;;;5.26;81.55;93387.41;514386;28;787;-50
2023/04/23 00:21:54;;;;;;;53.63;17.30;;;;;;;5.23;81.69;93385.69;515707;28;823;-51
2023/04/23 00:22:10;;;;;;;41.53;16.52;;;;;;;5.29;81.53;93389.09;515513;28;1020;-51
2023/04/23 00:22:26;;;;;;;38.25;17.80;;;;;;;5.30;81.63;93390.59;515707;28;853;-50
2023/04/23 00:22:42;;;;;;;42.42;18.42;;;;;;;5.12;81.28;93380.34;515778;28;1035;-51
2023/04/23 00:22:57;;;;;;;41.78;17.55;;;;;;;5.05;81.68;93381.66;515754;28;849;-50
2023/04/23 00:23:13;;;;;;;34.23;17.27;;;;;;;5.01;81.95;93394.16;515652;28;1041;-50
2023/04/23 00:23:28;;;;;;;33.87;18.33;;;;;;;4.93;82.04;93393.25;515761;28;915;-50
2023/04/23 00:23:44;;;;;;;38.08;17.63;;;;;;;4.84;82.21;93386.13;514642;28;883;-50
2023/04/23 00:23:59;;;;;;;38.27;16.43;;;;;;;4.80;82.48;93391.16;513775;28;789;-51
2023/04/23 00:24:15;;;;;;;36.38;16.73;;;;;;;4.79;82.49;93388.91;514954;28;1167;-51
2023/04/23 00:24:32;;;;;;;35.33;16.47;;;;;;;4.80;82.99;93390.41;515396;28;1732;-50
2023/04/23 00:24:48;;;;;;;43.47;18.75;;;;;;;4.84;83.04;93386.13;515286;28;921;-52
2023/04/23 00:25:04;;;;;;;61.88;23.10;;;;;;;4.86;82.74;93391.81;515631;28;942;-51
2023/04/23 00:25:19;;;;;;;65.43;25.33;;;;;;;4.86;82.83;93385.63;515709;28;1563;-52
2023/04/23 00:25:34;;;;;;;84.90;28.55;;;;;;;4.87;83.02;93387.09;515921;28;759;-51
2023/04/23 00:25:50;;;;;;;104.63;29.23;;;;;;;4.90;82.69;93384.06;515557;28;1605;-54
2023/04/23 00:26:05;;;;;;;90.15;26.95;;;;;;;4.84;82.64;93372.47;515582;28;887;-50
2023/04/23 00:26:21;;;;;;;94.67;26.57;;;;;;;4.93;82.58;93390.53;515795;28;912;-52
2023/04/23 00:26:36;;;;;;;108.70;28.77;;;;;;;4.92;82.65;93395.25;516221;28;864;-51
2023/04/23 00:26:52;;;;;;;106.45;29.42;;;;;;;4.89;82.57;93388.06;517792;28;986;-50
2023/04/23 00:27:07;;;;;;;98.30;26.42;;;;;;;4.86;82.39;93396.56;517361;28;1260;-51
2023/04/23 00:27:23;;;;;;;88.40;24.53;;;;;;;4.83;82.53;93394.84;514547;28;863;-50
2023/04/23 00:27:38;;;;;;;80.85;24.75;;;;;;;4.84;82.75;93390.84;514827;28;1532;-50
2023/04/23 00:27:54;;;;;;;76.97;23.10;;;;;;;4.87;82.53;93387.84;514521;28;846;-51
2023/04/23 00:28:09;;;;;;;69.75;22.08;;;;;;;4.91;82.53;93393.78;513813;28;852;-51
2023/04/23 00:28:25;;;;;;;66.53;21.53;;;;;;;4.95;82.50;93396.97;513809;28;1147;-50
2023/04/23 00:28:40;;;;;;;65.67;20.57;;;;;;;5.01;82.58;93385.94;514949;28;995;-50
2023/04/23 00:28:55;;;;;;;61.08;20.70;;;;;;;5.06;82.24;93391.38;515800;28;947;-51
2023/04/23 00:29:11;;;;;;;69.47;20.60;;;;;;;5.02;82.09;93382.72;515906;28;789;-50
2023/04/23 00:29:27;;;;;;;84.25;19.63;;;;;;;5.01;81.82;93383.22;515896;28;867;-49
2023/04/23 00:29:42;;;;;;;92.73;19.97;;;;;;;4.98;81.69;93384.97;516859;28;1559;-50
2023/04/23 00:29:58;;;;;;;90.35;23.08;;;;;;;4.94;81.77;93387.25;517701;28;898;-51
2023/04/23 00:30:13;;;;;;;89.30;23.02;;;;;;;4.85;81.69;93389.63;514655;28;1657;-52
2023/04/23 00:30:29;;;;;;;77.50;20.47;;;;;;;4.73;82.03;93385.50;515267;28;891;-51
2023/04/23 00:30:44;;;;;;;76.38;19.90;;;;;;;4.70;82.11;93392.00;515836;28;1031;-51
2023/04/23 00:31:00;;;;;;;86.07;20.80;;;;;;;4.68;82.38;93386.31;515777;28;924;-50
2023/04/23 00:31:15;;;;;;;71.03;20.40;;;;;;;4.68;82.51;93386.31;515908;28;852;-51
2023/04/23 00:31:30;;;;;;;77.57;18.95;;;;;;;4.70;82.54;93387.25;515842;28;1052;-50
2023/04/23 00:31:46;;;;;;;95.83;20.13;;;;;;;4.70;82.66;93386.53;514557;28;1189;-51
2023/04/23 00:32:02;;;;;;;67.43;19.40;;;;;;;4.51;82.79;93359.84;513650;28;1030;-50
2023/04/23 00:32:17;;;;;;;44.63;17.55;;;;;;;4.76;82.83;93387.97;513846;28;849;-50
2023/04/23 00:32:33;;;;;;;50.97;18.90;;;;;;;4.80;82.86;93382.19;513835;28;809;-50
2023/04/23 00:32:48;;;;;;;51.17;18.83;;;;;;;4.88;82.74;93386.59;515480;28;750;-51
2023/04/23 00:33:03;;;;;;;65.78;19.38;;;;;;;4.89;82.59;93388.06;515807;28;833;-49
2023/04/23 00:33:19;;;;;;;65.07;19.53;;;;;;;4.79;82.52;93372.50;514384;28;1440;-52
2023/04/23 00:33:34;;;;;;;59.33;18.13;;;;;;;4.94;82.25;93381.03;515771;28;880;-50
2023/04/23 00:33:50;;;;;;;67.87;18.37;;;;;;;4.98;82.49;93382.25;514967;28;1287;-51
2023/04/23 00:34:05;;;;;;;57.65;18.52;;;;;;;5.03;82.30;93386.91;515390;28;849;-51
2023/04/23 00:34:21;;;;;;;62.53;19.03;;;;;;;5.02;82.14;93384.69;515565;28;824;-50
2023/04/23 00:34:36;;;;;;;69.50;18.33;;;;;;;4.92;82.16;93378.81;515744;28;996;-50
2023/04/23 00:34:51;;;;;;;52.53;16.80;;;;;;;4.86;82.36;93383.63;515461;28;1200;-51
2023/04/23 00:35:07;;;;;;;37.80;15.80;;;;;;;4.88;82.61;93385.84;515512;28;847;-50
2023/04/23 00:35:22;;;;;;;40.90;16.23;;;;;;;4.89;82.70;93387.31;515404;28;1939;-53
2023/04/23 00:35:38;;;;;;;53.67;18.80;;;;;;;4.93;82.97;93382.31;515151;28;908;-50
2023/04/23 00:35:53;;;;;;;52.60;17.83;;;;;;;4.93;82.93;93379.56;513668;28;1391;-50
2023/04/23 00:36:08;;;;;;;37.37;15.97;;;;;;;4.92;82.82;93383.56;515622;28;1537;-51
2023/04/23 00:36:25;;;;;;;33.20;16.40;;;;;;;4.87;82.75;93371.44;515904;28;814;-50
2023/04/23 00:36:40;;;;;;;42.10;18.25;;;;;;;4.79;83.49;93386.16;515134;28;886;-51
2023/04/23 00:36:55;;;;;;;43.67;18.10;;;;;;;4.80;83.77;93376.72;515878;28;809;-51
2023/04/23 00:37:11;;;;;;;34.03;16.73;;;;;;;4.83;83.91;93381.19;515170;28;1349;-48
2023/04/23 00:37:26;;;;;;;29.75;16.00;;;;;;;4.87;83.93;93381.63;513889;28;889;-52
2023/04/23 00:37:42;;;;;;;30.00;15.60;;;;;;;4.91;83.78;93371.13;514435;28;867;-49
2023/04/23 00:37:57;;;;;;;27.20;15.55;;;;;;;4.98;83.96;93376.03;515757;28;856;-50
2023/04/23 00:38:13;;;;;;;24.67;15.83;;;;;;;5.03;83.87;93380.69;515743;28;853;-49
2023/04/23 00:38:28;;;;;;;30.95;15.20;;;;;;;5.07;83.88;93379.16;515748;28;848;-52
2023/04/23 00:38:44;;;;;;;39.53;14.93;;;;;;;5.12;83.72;93380.34;515963;28;823;-49
2023/04/23 00:38:59;;;;;;;37.78;15.48;;;;;;;5.14;83.66;93375.84;515711;28;809;-52
2023/04/23 00:39:15;;;;;;;30.23;15.13;;;;;;;5.17;83.52;93383.03;515516;28;1206;-50
2023/04/23 00:39:30;;;;;;;38.35;15.55;;;;;;;5.21;83.61;93377.25;515722;28;852;-50
2023/04/23 00:39:46;;;;;;;38.63;15.90;;;;;;;5.23;83.55;93374.75;514073;28;797;-52
2023/04/23 00:40:01;;;;;;;29.98;15.18;;;;;;;5.27;83.58;93380.66;514483;28;1481;-50
2023/04/23 00:40:17;;;;;;;29.63;14.70;;;;;;;5.29;83.30;93378.91;513729;28;833;-49
2023/04/23 00:40:32;;;;;;;34.75;15.82;;;;;;;5.31;83.31;93381.13;514412;28;893;-49
2023/04/23 00:40:47;;;;;;;29.30;14.83;;;;;;;5.34;83.39;93380.09;516014;28;1489;-51
2023/04/23 00:41:03;;;;;;;22.27;13.63;;;;;;;5.36;83.33;93381.06;515780;28;861;-51
2023/04/23 00:41:19;;;;;;;22.35;13.65;;;;;;;5.40;83.34;93383.50;515728;28;781;-50
2023/04/23 00:41:35;;;;;;;28.88;14.18;;;;;;;5.41;83.24;93387.72;515662;28;834;-51
2023/04/23 00:41:50;;;;;;;29.98;13.63;;;;;;;5.44;83.26;93383.19;515619;28;844;-51
2023/04/23 00:42:11;;;;;;;29.33;13.20;;;;;;;5.45;83.22;93376.47;515553;28;920;-50
2023/04/23 00:42:27;;;;;;;39.92;14.32;;;;;;;5.49;83.06;93379.66;513610;28;877;-51
2023/04/23 00:42:43;;;;;;;30.00;13.63;;;;;;;5.50;83.13;93387.34;515190;28;878;-51
2023/04/23 00:42:59;;;;;;;28.88;13.05;;;;;;;5.52;82.76;93384.84;515686;28;837;-52
2023/04/23 00:43:14;;;;;;;25.00;12.27;;;;;;;5.53;82.85;93377.34;515620;28;967;-51
2023/04/23 00:43:30;;;;;;;29.93;12.17;;;;;;;5.55;82.71;93389.28;515698;28;849;-51
2023/04/23 00:43:46;;;;;;;29.65;11.98;;;;;;;5.56;82.75;93385.28;515829;28;1004;-51
2023/04/23 00:44:02;;;;;;;25.58;11.68;;;;;;;5.58;82.59;93384.78;515616;28;866;-50
2023/04/23 00:44:17;;;;;;;25.30;11.48;;;;;;;5.58;82.63;93384.78;515734;28;870;-52
2023/04/23 00:44:33;;;;;;;23.27;11.57;;;;;;;5.58;82.57;93382.78;515592;28;954;-51
2023/04/23 00:44:49;;;;;;;18.98;10.98;;;;;;;5.59;82.40;93380.78;515948;28;857;-53
2023/04/23 00:45:08;;;;;;;20.52;10.75;;;;;;;5.62;82.54;93377.00;513709;28;861;-49
2023/04/23 00:45:23;;;;;;;20.08;11.30;;;;;;;5.64;82.33;93374.47;514467;28;1720;-50
2023/04/23 00:45:39;;;;;;;16.00;10.67;;;;;;;5.67;82.42;93382.41;513838;28;848;-51
2023/04/23 00:45:54;;;;;;;15.82;10.20;;;;;;;5.69;82.34;93382.63;513669;28;859;-50
2023/04/23 00:46:10;;;;;;;18.40;9.70;;;;;;;5.59;81.85;93369.84;511573;29;815;-50
2023/04/23 00:46:25;;;;;;;21.42;9.85;;;;;;;5.74;81.95;93383.81;511485;29;1155;-48
2023/04/23 00:46:41;;;;;;;23.80;11.43;;;;;;;5.74;81.66;93379.06;511909;28;1033;-49
2023/04/23 00:46:56;;;;;;;24.90;12.20;;;;;;;5.62;81.51;93385.97;510392;28;924;-49
2023/04/23 00:47:13;;;;;;;24.53;11.33;;;;;;;5.56;81.44;93385.28;511727;29;762;-49
2023/04/23 00:47:29;;;;;;;28.63;11.18;;;;;;;5.57;81.77;93383.28;512143;28;943;-51
2023/04/23 00:47:45;;;;;;;24.13;12.27;;;;;;;5.58;81.79;93382.78;513533;28;1624;-50
2023/04/23 00:48:02;;;;;;;19.35;12.23;;;;;;;5.62;81.78;93387.94;514246;28;946;-51
2023/04/23 00:48:17;;;;;;;24.20;11.40;;;;;;;5.65;81.70;93384.91;515354;28;1242;-49
2023/04/23 00:48:33;;;;;;;26.50;11.17;;;;;;;5.63;81.64;93381.94;515601;28;904;-52
2023/04/23 00:48:49;;;;;;;35.33;12.52;;;;;;;5.62;81.36;93387.94;515841;28;884;-54
2023/04/23 00:49:05;;;;;;;44.03;13.38;;;;;;;5.52;81.76;93389.59;515775;28;877;-50
2023/04/23 00:49:22;;;;;;;36.90;12.23;;;;;;;5.50;81.49;93384.59;515775;28;920;-50
2023/04/23 00:49:38;;;;;;;38.05;11.98;;;;;;;5.53;81.62;93388.31;516002;28;1036;-49
2023/04/23 00:49:54;;;;;;;39.55;12.80;;;;;;;5.57;81.81;93383.28;515786;28;849;-50
2023/04/23 00:50:10;;;;;;;34.13;12.48;;;;;;;5.61;81.72;93386.47;514868;28;1278;-50
2023/04/23 00:50:25;;;;;;;27.40;12.38;;;;;;;5.63;81.72;93384.69;513873;28;831;-50
2023/04/23 00:50:41;;;;;;;28.60;12.67;;;;;;;5.67;81.43;93384.41;515166;28;857;-50
2023/04/23 00:51:03;;;;;;;31.52;12.82;;;;;;;5.71;81.34;93388.31;515790;28;817;-50
2023/04/23 00:51:18;;;;;;;34.33;13.20;;;;;;;5.70;81.14;93384.09;515715;28;1075;-53
2023/04/23 00:51:33;;;;;;;27.00;12.30;;;;;;;5.76;81.08;93382.00;515541;28;1277;-51
2023/04/23 00:51:49;;;;;;;30.03;12.40;;;;;;;5.79;80.84;93389.22;513834;28;861;-50
2023/04/23 00:52:05;;;;;;;48.58;14.82;;;;;;;5.73;80.71;93374.84;513612;28;775;-50
2023/04/23 00:52:20;;;;;;;55.97;16.02;;;;;;;5.74;80.76;93386.56;513516;28;814;-50
2023/04/23 00:52:37;;;;;;;47.23;14.87;;;;;;;5.74;80.73;93384.53;514172;28;1191;-50
2023/04/23 00:52:53;;;;;;;42.25;14.75;;;;;;;5.75;80.77;93383.28;515357;28;2008;-50
2023/04/23 00:53:08;;;;;;;39.55;14.63;;;;;;;5.75;80.80;93391.50;515533;28;876;-50
2023/04/23 00:53:24;;;;;;;46.03;16.07;;;;;;;5.76;80.70;93387.50;513390;28;1332;-50
2023/04/23 00:53:39;;;;;;;54.70;17.55;;;;;;;5.78;80.87;93379.50;511701;28;1536;-51
2023/04/23 00:53:55;;;;;;;52.07;15.93;;;;;;;5.81;80.85;93383.94;511409;29;929;-50
2023/04/23 00:54:11;;;;;;;61.00;17.10;;;;;;;5.83;80.74;93386.16;511380;29;1215;-51
2023/04/23 00:54:27;;;;;;;85.82;18.73;;;;;;;5.85;80.74;93378.94;511651;29;877;-49
2023/04/23 00:54:42;;;;;;;95.65;19.05;;;;;;;5.87;80.53;93386.63;512299;28;776;-49
2023/04/23 00:54:58;;;;;;;91.97;19.53;;;;;;;5.89;80.29;93389.63;513594;28;811;-49
2023/04/23 00:55:13;;;;;;;84.93;19.30;;;;;;;5.90;80.05;93385.59;515213;28;1914;-51
2023/04/23 00:55:28;;;;;;;73.33;17.60;;;;;;;5.91;79.97;93393.28;516726;28;908;-52
2023/04/23 00:55:44;;;;;;;57.60;14.95;;;;;;;5.93;79.78;93390.06;515422;28;993;-49
2023/04/23 00:56:01;;;;;;;75.43;16.63;;;;;;;5.94;79.48;93386.78;515802;28;852;-50
2023/04/23 00:56:17;;;;;;;90.43;19.05;;;;;;;5.96;79.38;93392.47;515773;28;857;-50
2023/04/23 00:56:32;;;;;;;80.47;22.23;;;;;;;5.97;79.25;93396.72;515658;28;845;-50
2023/04/23 00:56:48;;;;;;;73.80;22.70;;;;;;;6.00;79.06;93386.69;515898;28;1580;-49
2023/04/23 00:57:03;;;;;;;55.45;19.67;;;;;;;5.99;78.78;93390.69;515601;28;865;-50
2023/04/23 00:57:19;;;;;;;50.70;19.47;;;;;;;5.99;78.58;93388.72;514183;28;1239;-50
2023/04/23 00:57:35;;;;;;;55.25;19.75;;;;;;;5.99;78.32;93391.44;513866;28;805;-50
2023/04/23 00:57:51;;;;;;;46.45;17.73;;;;;;;6.00;78.24;93392.16;513578;28;915;-50
2023/04/23 00:58:06;;;;;;;44.20;17.45;;;;;;;6.00;78.04;93392.16;513442;28;1716;-50
2023/04/23 00:58:21;;;;;;;49.47;18.90;;;;;;;6.00;77.89;93395.66;513643;28;1518;-50
2023/04/23 00:58:37;;;;;;;40.20;18.00;;;;;;;6.01;77.68;93394.41;514472;28;846;-49
2023/04/23 00:58:52;;;;;;;30.80;15.57;;;;;;;5.98;77.71;93389.97;511550;28;853;-51
2023/04/23 00:59:08;;;;;;;29.80;13.38;;;;;;;5.95;77.66;93393.00;511702;28;817;-50
2023/04/23 00:59:24;;;;;;;31.03;12.27;;;;;;;5.91;77.70;93389.84;511599;28;845;-50
2023/04/23 00:59:40;;;;;;;30.27;12.35;;;;;;;5.87;77.79;93392.84;510860;28;833;-50
2023/04/23 00:59:57;;;;;;;32.43;12.40;;;;;;;5.85;77.83;93395.38;511559;28;904;-50
2023/04/23 01:00:13;;;;;;;33.15;12.15;;;;;;;5.85;77.86;93389.16;510167;29;1349;-49
2023/04/23 01:00:28;;;;;;;24.77;11.85;;;;;;;5.74;77.86;93376.31;510430;29;841;-50
2023/04/23 01:00:45;;;;;;;28.53;12.17;;;;;;;5.78;77.72;93390.44;512660;28;990;-50
2023/04/23 01:01:03;;;;;;;26.85;12.57;;;;;;;5.68;77.70;93392.09;511657;28;794;-50
2023/04/23 01:01:19;;;;;;;31.33;13.68;;;;;;;5.46;77.78;93392.38;511447;29;1288;-50
2023/04/23 01:01:35;;;;;;;49.17;18.70;;;;;;;5.31;78.26;93394.81;511965;28;1107;-49
2023/04/23 01:01:51;;;;;;;50.17;20.30;;;;;;;5.15;78.59;93391.03;514778;28;1151;-50
2023/04/23 01:02:07;;;;;;;40.95;20.17;;;;;;;5.06;78.87;93388.63;513567;28;900;-50
2023/04/23 01:02:23;;;;;;;34.22;18.30;;;;;;;5.05;79.16;93392.63;513659;28;806;-49
2023/04/23 01:02:39;;;;;;;31.00;15.25;;;;;;;5.10;79.36;93396.53;514678;28;948;-49
2023/04/23 01:02:54;;;;;;;41.38;17.92;;;;;;;5.10;79.61;93388.34;515588;28;880;-50
2023/04/23 01:03:10;;;;;;;46.57;20.57;;;;;;;4.93;79.50;93369.38;515567;28;1088;-50
2023/04/23 01:03:25;;;;;;;39.28;18.80;;;;;;;4.96;79.46;93394.97;514142;28;1489;-53
2023/04/23 01:03:42;;;;;;;28.83;15.50;;;;;;;4.86;79.66;93391.09;514880;28;1512;-50
2023/04/23 01:03:57;;;;;;;22.05;11.93;;;;;;;4.88;79.96;93388.56;515623;28;822;-49
2023/04/23 01:04:15;;;;;;;23.20;9.57;;;;;;;4.93;79.93;93396.00;515754;28;907;-50
2023/04/23 01:04:31;;;;;;;20.02;8.60;;;;;;;4.98;80.08;93387.00;515734;28;953;-49
2023/04/23 01:04:50;;;;;;;17.80;8.75;;;;;;;5.04;80.04;93390.41;514465;28;980;-49
2023/04/23 01:05:06;;;;;;;16.70;8.52;;;;;;;5.06;79.75;93391.38;513713;28;901;-50
2023/04/23 01:05:22;;;;;;;17.92;8.07;;;;;;;5.00;79.53;93384.47;513795;28;1351;-49
2023/04/23 01:05:40;;;;;;;17.80;8.57;;;;;;;4.97;79.77;93388.22;514429;28;1011;-49
2023/04/23 01:05:56;;;;;;;26.58;11.77;;;;;;;4.88;79.82;93367.44;515544;28;983;-49
2023/04/23 01:06:11;;;;;;;33.38;12.50;;;;;;;5.01;79.70;93389.44;515471;28;1578;-50
2023/04/23 01:06:27;;;;;;;27.27;10.80;;;;;;;4.97;79.75;93374.56;515635;28;805;-50
2023/04/23 01:06:45;;;;;;;22.15;10.35;;;;;;;5.07;79.50;93390.09;513858;28;866;-50
2023/04/23 01:07:01;;;;;;;20.23;10.20;;;;;;;5.01;79.24;93375.00;513613;28;892;-50
2023/04/23 01:07:16;;;;;;;22.45;11.35;;;;;;;5.14;79.26;93386.03;513453;28;951;-50
2023/04/23 01:07:34;;;;;;;26.67;13.53;;;;;;;5.14;79.22;93384.06;512781;28;845;-49
2023/04/23 01:07:50;;;;;;;27.77;14.68;;;;;;;5.21;78.81;93391.69;511449;29;894;-50
2023/04/23 01:08:05;;;;;;;29.30;15.10;;;;;;;5.25;78.81;93386.66;511628;29;807;-49
2023/04/23 01:08:22;;;;;;;37.97;15.38;;;;;;;5.30;78.49;93393.34;511591;29;876;-50
2023/04/23 01:08:38;;;;;;;41.25;14.25;;;;;;;5.31;78.45;93390.06;514612;28;849;-50
2023/04/23 01:08:53;;;;;;;28.33;12.32;;;;;;;5.34;78.18;93393.78;511606;28;798;-51
2023/04/23 01:09:09;;;;;;;33.87;13.13;;;;;;;5.36;78.27;93394.00;511577;28;1152;-51
2023/04/23 01:09:26;;;;;;;38.03;14.10;;;;;;;5.38;78.05;93396.97;512558;28;865;-50
2023/04/23 01:09:42;;;;;;;41.35;12.52;;;;;;;5.30;77.87;93380.41;513476;28;890;-51
2023/04/23 01:09:57;;;;;;;54.67;11.10;;;;;;;5.37;77.83;93387.28;511545;28;845;-51
2023/04/23 01:10:13;;;;;;;44.05;10.57;;;;;;;5.34;77.79;93389.06;511462;29;794;-52
2023/04/23 01:10:31;;;;;;;31.10;9.33;;;;;;;5.24;77.74;93387.19;511644;29;841;-50
2023/04/23 01:10:47;;;;;;;33.33;8.38;;;;;;;5.19;77.85;93386.00;511468;28;993;-50
2023/04/23 01:11:02;;;;;;;42.70;8.80;;;;;;;5.14;77.95;93388.78;511408;29;865;-50
2023/04/23 01:11:18;;;;;;;50.45;9.27;;;;;;;5.14;78.20;93383.31;513893;28;841;-52
2023/04/23 01:11:34;;;;;;;36.03;8.40;;;;;;;5.16;78.22;93391.75;515545;28;1181;-51
2023/04/23 01:11:50;;;;;;;31.65;7.95;;;;;;;5.14;78.23;93388.78;514288;28;868;-51
2023/04/23 01:12:05;;;;;;;46.17;8.40;;;;;;;5.14;78.30;93394.25;515350;28;1080;-51
2023/04/23 01:12:21;;;;;;;40.55;8.57;;;;;;;5.09;78.38;93389.59;515438;28;1107;-51
2023/04/23 01:12:36;;;;;;;37.87;8.77;;;;;;;5.05;78.42;93383.66;515903;28;903;-49
2023/04/23 01:12:52;;;;;;;46.22;8.65;;;;;;;5.02;78.48;93392.91;515503;28;903;-51
2023/04/23 01:13:08;;;;;;;42.40;8.83;;;;;;;4.96;78.91;93384.75;514515;28;872;-50
2023/04/23 01:13:28;;;;;;;37.75;8.52;;;;;;;4.89;79.04;93390.81;514229;28;1272;-54
2023/04/23 01:13:43;;;;;;;41.22;8.43;;;;;;;4.89;79.42;93395.53;515783;28;1025;-51
2023/04/23 01:13:59;;;;;;;74.10;10.83;;;;;;;4.89;79.57;93393.56;515654;28;854;-51
2023/04/23 01:14:15;;;;;;;90.53;12.40;;;;;;;4.92;79.38;93389.78;515615;28;881;-51
2023/04/23 01:14:30;;;;;;;80.17;10.20;;;;;;;4.96;79.35;93382.00;515672;28;815;-51
2023/04/23 01:14:46;;;;;;;71.60;9.15;;;;;;;5.01;79.41;93383.22;515845;28;900;-51
2023/04/23 01:15:02;;;;;;;66.30;9.60;;;;;;;5.03;79.47;93388.91;515577;28;1337;-50
2023/04/23 01:15:18;;;;;;;57.03;9.15;;;;;;;5.05;79.33;93386.41;515434;28;2004;-51
2023/04/23 01:15:33;;;;;;;63.35;9.13;;;;;;;5.04;79.42;93388.41;513493;28;1239;-52
2023/04/23 01:15:49;;;;;;;78.50;10.93;;;;;;;5.07;79.58;93386.63;511409;28;1133;-50
2023/04/23 01:16:05;;;;;;;71.07;11.88;;;;;;;5.10;79.31;93393.81;511522;29;879;-50
2023/04/23 01:16:20;;;;;;;59.25;10.55;;;;;;;5.13;79.33;93390.06;511502;29;861;-50
2023/04/23 01:16:37;;;;;;;80.80;10.90;;;;;;;5.17;79.16;93387.75;511959;28;881;-51
2023/04/23 01:16:52;;;;;;;87.00;10.93;;;;;;;5.19;78.86;93385.25;510486;29;1014;-51